Time;durP1;ratioP1;P1;durP2;ratioP2;P2;SDS_P1;SDS_P2;PMS_P1;PMS_P2;Temp;Humidity;BMP_temperature;BMP_pressure;BME280_temperature;BME280_humidity;BME280_pressure;Samples;Min_cycle;Max_cycle;Signal;HPM_P1;HPM_P2
2023/05/07 00:03:53;;;;;;;1.55;1.30;;;;;;;;;;8247733;28;20302;-72
2023/05/07 00:07:53;;;;;;;3.90;1.30;;;;;;;;;;8248783;28;20037;-72
2023/05/07 00:11:53;;;;;;;2.00;1.35;;;;;;;;;;8251540;28;20022;-72
2023/05/07 00:15:55;;;;;;;1.90;1.40;;;;;;;;;;8247725;28;20034;-72
2023/05/07 00:19:55;;;;;;;2.90;1.48;;;;;;;;;;8252469;28;20018;-72
2023/05/07 00:23:55;;;;;;;2.90;1.70;;;;;;;;;;8251786;28;20022;-72
2023/05/07 00:27:57;;;;;;;2.78;1.42;;;;;;;;;;8267947;28;20034;-72
2023/05/07 00:31:57;;;;;;;3.72;1.42;;;;;;;;;;8255106;28;20042;-72
2023/05/07 00:35:57;;;;;;;2.33;1.60;;;;;;;;;;8249016;28;20081;-72
2023/05/07 00:39:57;;;;;;;2.00;1.70;;;;;;;;;;8247995;28;20781;-72
2023/05/07 00:43:58;;;;;;;1.65;1.40;;;;;;;;;;8252381;28;20041;-72
2023/05/07 00:48:02;;;;;;;2.53;1.67;;;;;;;;;;8251356;28;20042;-73
2023/05/07 00:52:02;;;;;;;1.67;1.52;;;;;;;;;;8249767;28;20023;-72
2023/05/07 00:56:02;;;;;;;2.53;1.60;;;;;;;;;;8249344;28;20294;-72
2023/05/07 01:00:04;;;;;;;1.70;1.60;;;;;;;;;;8253823;28;20715;-72
2023/05/07 01:04:04;;;;;;;2.40;1.35;;;;;;;;;;8254766;28;20054;-72
2023/05/07 01:08:05;;;;;;;1.48;1.23;;;;;;;;;;8257130;28;20426;-72
2023/05/07 01:12:06;;;;;;;1.80;1.35;;;;;;;;;;8257671;28;20054;-72
2023/05/07 01:16:06;;;;;;;1.60;1.30;;;;;;;;;;8258965;28;20042;-72
2023/05/07 01:20:07;;;;;;;3.72;1.80;;;;;;;;;;8269873;28;20030;-72
2023/05/07 01:24:07;;;;;;;1.90;1.33;;;;;;;;;;8254856;28;20519;-72
2023/05/07 01:28:07;;;;;;;3.15;1.60;;;;;;;;;;8239293;28;20129;-72
2023/05/07 01:32:08;;;;;;;2.67;1.60;;;;;;;;;;8235450;28;20092;-72
2023/05/07 01:36:08;;;;;;;4.15;1.70;;;;;;;;;;8237667;28;20041;-72
2023/05/07 01:40:09;;;;;;;1.98;1.70;;;;;;;;;;8234374;28;20830;-72
2023/05/07 01:44:12;;;;;;;1.60;1.40;;;;;;;;;;8237033;28;20030;-71
2023/05/07 01:48:13;;;;;;;1.35;1.25;;;;;;;;;;8234711;28;20643;-72
2023/05/07 01:52:14;;;;;;;1.60;1.50;;;;;;;;;;8236608;28;20022;-72
2023/05/07 01:56:14;;;;;;;1.80;1.63;;;;;;;;;;8240434;28;20088;-74
2023/05/07 02:00:15;;;;;;;2.05;1.65;;;;;;;;;;8234380;28;20273;-72
2023/05/07 02:04:15;;;;;;;1.87;1.43;;;;;;;;;;8238842;28;20070;-72
2023/05/07 02:08:15;;;;;;;2.28;1.45;;;;;;;;;;8235418;28;20916;-72
2023/05/07 02:12:15;;;;;;;6.45;1.77;;;;;;;;;;8234849;28;20030;-72
2023/05/07 02:16:15;;;;;;;2.55;1.65;;;;;;;;;;8240105;28;20049;-72
2023/05/07 02:20:16;;;;;;;2.80;1.60;;;;;;;;;;8238181;28;20026;-72
2023/05/07 02:24:16;;;;;;;2.20;1.67;;;;;;;;;;8237315;28;20996;-72
2023/05/07 02:28:16;;;;;;;2.35;1.70;;;;;;;;;;8240488;28;21007;-72
2023/05/07 02:32:16;;;;;;;2.05;1.85;;;;;;;;;;8238551;28;20038;-72
2023/05/07 02:36:17;;;;;;;1.95;1.77;;;;;;;;;;8231566;28;20031;-72
2023/05/07 02:40:17;;;;;;;1.83;1.35;;;;;;;;;;8239704;28;20043;-72
2023/05/07 02:44:17;;;;;;;2.53;1.60;;;;;;;;;;8244813;28;20119;-72
2023/05/07 02:48:17;;;;;;;1.98;1.77;;;;;;;;;;8246486;28;20042;-72
2023/05/07 02:52:17;;;;;;;2.53;1.80;;;;;;;;;;8233545;28;20037;-72
2023/05/07 02:56:17;;;;;;;2.20;1.70;;;;;;;;;;8229525;28;20970;-72
2023/05/07 03:00:18;;;;;;;3.33;1.77;;;;;;;;;;8242715;28;20591;-72
2023/05/07 03:04:18;;;;;;;2.40;1.90;;;;;;;;;;8227773;28;20064;-71
2023/05/07 03:08:19;;;;;;;1.92;1.67;;;;;;;;;;8228949;28;20113;-72
2023/05/07 03:12:19;;;;;;;3.70;1.83;;;;;;;;;;8229335;28;20018;-72
2023/05/07 03:16:19;;;;;;;1.77;1.60;;;;;;;;;;8226555;28;20042;-72
2023/05/07 03:20:19;;;;;;;2.67;1.70;;;;;;;;;;8230204;28;20030;-71
2023/05/07 03:24:20;;;;;;;3.23;1.83;;;;;;;;;;8225592;28;20030;-72
2023/05/07 03:28:20;;;;;;;2.13;1.80;;;;;;;;;;8229330;28;20026;-72
2023/05/07 03:32:20;;;;;;;2.60;1.70;;;;;;;;;;8228629;28;20053;-72
2023/05/07 03:36:21;;;;;;;1.50;1.40;;;;;;;;;;8225611;28;20679;-72
2023/05/07 03:40:21;;;;;;;1.80;1.70;;;;;;;;;;8226296;28;20277;-72
2023/05/07 03:44:21;;;;;;;1.98;1.75;;;;;;;;;;8238584;28;20367;-72
2023/05/07 03:48:21;;;;;;;2.15;1.95;;;;;;;;;;8241542;28;20030;-72
2023/05/07 03:52:25;;;;;;;2.63;1.90;;;;;;;;;;8235231;28;20029;-72
2023/05/07 03:56:27;;;;;;;;;;;;;;;;;;8234110;28;20038;-72
2023/05/07 04:00:27;;;;;;;2.58;1.83;;;;;;;;;;8238104;28;19920;-72
2023/05/07 04:04:29;;;;;;;3.30;1.98;;;;;;;;;;8247324;28;20267;-72
2023/05/07 04:08:29;;;;;;;2.42;1.80;;;;;;;;;;8244512;28;20566;-72
2023/05/07 04:12:30;;;;;;;1.60;1.50;;;;;;;;;;8229268;28;20023;-72
2023/05/07 04:16:30;;;;;;;2.70;1.80;;;;;;;;;;8230211;28;20128;-72
2023/05/07 04:20:30;;;;;;;2.13;1.80;;;;;;;;;;8229747;28;20593;-72
2023/05/07 04:24:33;;;;;;;2.10;1.90;;;;;;;;;;8234201;28;20307;-72
2023/05/07 04:28:34;;;;;;;2.08;1.70;;;;;;;;;;8230549;28;20447;-72
2023/05/07 04:32:34;;;;;;;1.77;1.67;;;;;;;;;;8231308;28;20034;-72
2023/05/07 04:36:34;;;;;;;2.30;2.10;;;;;;;;;;8233698;28;20029;-72
2023/05/07 04:40:35;;;;;;;1.83;1.73;;;;;;;;;;8234817;28;20053;-72
2023/05/07 04:44:37;;;;;;;2.10;1.90;;;;;;;;;;8232842;28;20915;-72
2023/05/07 04:48:37;;;;;;;2.55;1.80;;;;;;;;;;8223892;28;20077;-72
2023/05/07 04:52:37;;;;;;;3.25;2.17;;;;;;;;;;8247835;28;20100;-72
2023/05/07 04:56:37;;;;;;;2.92;1.85;;;;;;;;;;8250245;28;20060;-72
2023/05/07 05:00:39;;;;;;;3.17;2.00;;;;;;;;;;8247575;28;20046;-72
2023/05/07 05:04:39;;;;;;;5.47;1.92;;;;;;;;;;8247942;28;20462;-72
2023/05/07 05:08:39;;;;;;;1.90;1.80;;;;;;;;;;8242248;28;20062;-71
2023/05/07 05:12:40;;;;;;;2.65;2.10;;;;;;;;;;8259831;28;20090;-73
2023/05/07 05:16:40;;;;;;;2.45;1.90;;;;;;;;;;8255039;28;20035;-73
2023/05/07 05:20:40;;;;;;;2.10;1.88;;;;;;;;;;8248084;28;20045;-73
2023/05/07 05:24:40;;;;;;;2.88;1.92;;;;;;;;;;8246130;28;20041;-73
2023/05/07 05:28:40;;;;;;;3.75;2.28;;;;;;;;;;8241256;28;20022;-73
2023/05/07 05:32:40;;;;;;;3.33;2.05;;;;;;;;;;8245816;28;20038;-73
2023/05/07 05:36:41;;;;;;;2.30;2.03;;;;;;;;;;8249813;28;20375;-73
2023/05/07 05:40:41;;;;;;;2.25;2.00;;;;;;;;;;8248076;28;20037;-73
2023/05/07 05:44:41;;;;;;;4.35;1.90;;;;;;;;;;8248333;28;20026;-73
2023/05/07 05:48:41;;;;;;;1.83;1.70;;;;;;;;;;8252978;28;20097;-73
2023/05/07 05:52:41;;;;;;;2.78;1.90;;;;;;;;;;8249952;28;20173;-73
2023/05/07 05:56:42;;;;;;;4.30;1.73;;;;;;;;;;8249967;28;20033;-73
2023/05/07 06:00:42;;;;;;;2.60;1.80;;;;;;;;;;8238013;28;20034;-73
2023/05/07 06:04:42;;;;;;;2.47;1.90;;;;;;;;;;8231695;28;20073;-73
2023/05/07 06:08:42;;;;;;;2.95;2.15;;;;;;;;;;8232466;28;20165;-73
2023/05/07 06:12:43;;;;;;;2.10;1.90;;;;;;;;;;8228563;28;20030;-73
2023/05/07 06:16:43;;;;;;;2.72;1.95;;;;;;;;;;8244922;28;20030;-73
2023/05/07 06:20:44;;;;;;;4.47;2.13;;;;;;;;;;8233932;28;20018;-73
2023/05/07 06:24:44;;;;;;;2.13;1.92;;;;;;;;;;8247037;28;20031;-73
2023/05/07 06:28:44;;;;;;;3.05;1.80;;;;;;;;;;8236345;28;20567;-73
2023/05/07 06:32:44;;;;;;;2.20;1.92;;;;;;;;;;8233472;28;20030;-73
2023/05/07 06:36:44;;;;;;;3.03;1.85;;;;;;;;;;8227278;28;20049;-73
2023/05/07 06:40:47;;;;;;;2.55;2.00;;;;;;;;;;8236944;28;20030;-73
2023/05/07 06:44:48;;;;;;;2.47;2.00;;;;;;;;;;8225993;28;20065;-73
2023/05/07 06:48:48;;;;;;;2.88;2.13;;;;;;;;;;8234902;28;20292;-73
2023/05/07 06:52:48;;;;;;;2.08;1.83;;;;;;;;;;8229121;28;20030;-73
2023/05/07 06:56:48;;;;;;;3.88;2.00;;;;;;;;;;8225638;28;20026;-73
2023/05/07 07:00:49;;;;;;;2.00;1.80;;;;;;;;;;8228228;28;20835;-74
2023/05/07 07:04:49;;;;;;;2.83;2.13;;;;;;;;;;8228595;28;20553;-74
2023/05/07 07:08:49;;;;;;;3.92;1.95;;;;;;;;;;8223170;28;20329;-73
2023/05/07 07:12:49;;;;;;;2.20;2.00;;;;;;;;;;8222140;28;20027;-73
2023/05/07 07:16:50;;;;;;;2.20;1.90;;;;;;;;;;8227280;28;20073;-73
2023/05/07 07:20:50;;;;;;;4.15;2.10;;;;;;;;;;8233625;28;20050;-73
2023/05/07 07:24:51;;;;;;;2.33;1.83;;;;;;;;;;8225771;28;20022;-73
2023/05/07 07:28:51;;;;;;;2.38;1.95;;;;;;;;;;8223453;28;20026;-73
2023/05/07 07:32:52;;;;;;;2.05;1.80;;;;;;;;;;8228741;28;20498;-73
2023/05/07 07:36:52;;;;;;;2.25;1.95;;;;;;;;;;8224153;28;20022;-74
2023/05/07 07:40:52;;;;;;;4.15;2.30;;;;;;;;;;8226558;28;20022;-73
2023/05/07 07:44:53;;;;;;;2.47;2.00;;;;;;;;;;8226661;28;20058;-73
2023/05/07 07:48:53;;;;;;;3.00;1.92;;;;;;;;;;8225541;28;20511;-73
2023/05/07 07:52:54;;;;;;;2.63;1.80;;;;;;;;;;8235138;28;20024;-73
2023/05/07 07:56:54;;;;;;;2.10;1.80;;;;;;;;;;8220419;28;20041;-73
2023/05/07 08:00:55;;;;;;;1.83;1.70;;;;;;;;;;8217510;28;20317;-73
2023/05/07 08:04:56;;;;;;;3.42;1.90;;;;;;;;;;8221992;28;20527;-73
2023/05/07 08:08:56;;;;;;;3.65;1.75;;;;;;;;;;8225598;28;20037;-73
2023/05/07 08:12:56;;;;;;;2.75;2.05;;;;;;;;;;8231647;28;20018;-73
2023/05/07 08:16:56;;;;;;;2.75;2.00;;;;;;;;;;8228362;28;20041;-73
2023/05/07 08:20:56;;;;;;;2.40;2.10;;;;;;;;;;8223895;28;20018;-73
2023/05/07 08:24:57;;;;;;;3.10;2.13;;;;;;;;;;8236511;28;20030;-73
2023/05/07 08:28:57;;;;;;;3.05;2.20;;;;;;;;;;8244419;28;20109;-73
2023/05/07 08:32:57;;;;;;;2.70;2.00;;;;;;;;;;8242386;28;20058;-73
2023/05/07 08:36:57;;;;;;;2.55;2.05;;;;;;;;;;8240151;28;20476;-73
2023/05/07 08:40:58;;;;;;;2.95;2.20;;;;;;;;;;8241624;28;20041;-73
2023/05/07 08:44:59;;;;;;;3.40;2.20;;;;;;;;;;8244518;28;20030;-73
2023/05/07 08:48:59;;;;;;;2.20;1.92;;;;;;;;;;8242790;28;20046;-73
2023/05/07 08:53:00;;;;;;;3.50;1.98;;;;;;;;;;8238590;28;20014;-73
2023/05/07 08:57:00;;;;;;;2.07;1.77;;;;;;;;;;8243943;28;20048;-73
2023/05/07 09:01:10;;;;;;;2.78;1.95;;;;;;;;;;8253809;28;20293;-73
2023/05/07 09:05:10;;;;;;;2.85;1.80;;;;;;;;;;8247096;28;20030;-73
2023/05/07 09:09:13;;;;;;;2.67;1.65;;;;;;;;;;8240071;28;20045;-73
2023/05/07 09:13:14;;;;;;;3.97;2.22;;;;;;;;;;8230516;28;20026;-73
2023/05/07 09:17:17;;;;;;;2.55;1.90;;;;;;;;;;8227013;28;20146;-73
2023/05/07 09:21:19;;;;;;;2.47;1.88;;;;;;;;;;8231791;28;20021;-73
2023/05/07 09:25:27;;;;;;;3.13;1.80;;;;;;;;;;8222185;28;20045;-73
2023/05/07 09:29:29;;;;;;;2.50;2.00;;;;;;;;;;8223885;28;20022;-74
2023/05/07 09:33:30;;;;;;;2.67;1.90;;;;;;;;;;8224826;28;20039;-73
2023/05/07 09:37:30;;;;;;;3.45;1.70;;;;;;;;;;8216539;28;20041;-73
2023/05/07 09:41:32;;;;;;;2.65;2.08;;;;;;;;;;8218040;28;20085;-74
2023/05/07 09:45:32;;;;;;;3.35;2.10;;;;;;;;;;8218197;28;20070;-74
2023/05/07 09:49:37;;;;;;;2.27;1.83;;;;;;;;;;8220050;28;20033;-73
2023/05/07 09:53:37;;;;;;;4.82;2.10;;;;;;;;;;8224327;28;20026;-74
2023/05/07 09:57:38;;;;;;;2.20;2.00;;;;;;;;;;8221430;28;20844;-74
2023/05/07 10:01:40;;;;;;;2.03;1.75;;;;;;;;;;8232709;28;20966;-74
2023/05/07 10:05:42;;;;;;;5.25;2.20;;;;;;;;;;8222354;28;20049;-74
2023/05/07 10:09:44;;;;;;;5.97;2.80;;;;;;;;;;8216161;28;20137;-74
2023/05/07 10:13:46;;;;;;;2.58;1.90;;;;;;;;;;8217207;28;20970;-74
2023/05/07 10:17:46;;;;;;;2.38;1.58;;;;;;;;;;8221039;28;20030;-74
2023/05/07 10:22:05;;;;;;;5.68;1.90;;;;;;;;;;8219260;28;20022;-74
2023/05/07 10:26:07;;;;;;;3.05;1.80;;;;;;;;;;8218314;28;20018;-74
2023/05/07 10:30:15;;;;;;;2.80;1.88;;;;;;;;;;8219655;28;20061;-74
2023/05/07 10:34:18;;;;;;;1.80;1.70;;;;;;;;;;8226174;28;20018;-74
2023/05/07 10:38:18;;;;;;;2.10;1.90;;;;;;;;;;8219279;28;20101;-74
2023/05/07 10:42:19;;;;;;;2.13;1.65;;;;;;;;;;8229642;28;20910;-74
2023/05/07 10:46:20;;;;;;;2.50;1.50;;;;;;;;;;8222192;28;20046;-74
2023/05/07 10:50:21;;;;;;;1.40;1.30;;;;;;;;;;8213390;28;20056;-74
2023/05/07 10:54:23;;;;;;;3.20;1.42;;;;;;;;;;8221813;28;20448;-74
2023/05/07 10:58:31;;;;;;;1.95;1.50;;;;;;;;;;8234653;28;20053;-73
2023/05/07 11:02:50;;;;;;;2.40;1.75;;;;;;;;;;8241034;28;20084;-73
2023/05/07 11:07:05;;;;;;;4.15;1.60;;;;;;;;;;8232641;28;20046;-74
2023/05/07 11:11:06;;;;;;;3.10;1.70;;;;;;;;;;8221948;28;20030;-74
2023/05/07 11:15:06;;;;;;;2.17;1.98;;;;;;;;;;8225182;28;20034;-73
2023/05/07 11:19:06;;;;;;;2.42;2.00;;;;;;;;;;8239951;28;20138;-74
2023/05/07 11:23:06;;;;;;;2.92;1.80;;;;;;;;;;8231118;28;20117;-73
2023/05/07 11:27:06;;;;;;;2.30;2.10;;;;;;;;;;8232232;28;20030;-73
2023/05/07 11:31:07;;;;;;;2.57;2.10;;;;;;;;;;8219531;28;20077;-74
2023/05/07 11:35:07;;;;;;;1.80;1.60;;;;;;;;;;8221244;28;20601;-74
2023/05/07 11:39:22;;;;;;;2.83;1.95;;;;;;;;;;8211730;28;20661;-74
2023/05/07 11:43:23;;;;;;;3.55;1.92;;;;;;;;;;8218870;28;20676;-75
2023/05/07 11:47:23;;;;;;;2.67;1.88;;;;;;;;;;8216593;28;20034;-74
2023/05/07 11:51:25;;;;;;;3.28;1.73;;;;;;;;;;8232008;28;20972;-75
2023/05/07 11:55:26;;;;;;;1.95;1.80;;;;;;;;;;8221317;28;20033;-75
2023/05/07 11:59:26;;;;;;;2.35;1.60;;;;;;;;;;8217334;28;20022;-75
2023/05/07 12:03:26;;;;;;;2.83;2.03;;;;;;;;;;8215345;28;20530;-74
2023/05/07 12:07:26;;;;;;;4.67;1.60;;;;;;;;;;8221652;28;20945;-75
2023/05/07 12:11:26;;;;;;;2.83;1.60;;;;;;;;;;8225672;28;20389;-72
2023/05/07 12:15:27;;;;;;;2.53;1.67;;;;;;;;;;8223365;28;20038;-72
2023/05/07 12:19:28;;;;;;;3.33;1.80;;;;;;;;;;8217332;28;20022;-71
2023/05/07 12:23:28;;;;;;;2.35;1.90;;;;;;;;;;8213433;28;20100;-71
2023/05/07 12:27:30;;;;;;;2.92;1.42;;;;;;;;;;8211954;28;20472;-71
2023/05/07 12:31:30;;;;;;;2.30;1.58;;;;;;;;;;8214825;28;20050;-71
2023/05/07 12:35:30;;;;;;;4.80;1.80;;;;;;;;;;8214172;28;20888;-71
2023/05/07 12:39:32;;;;;;;1.85;1.48;;;;;;;;;;8210945;28;20041;-72
2023/05/07 12:43:32;;;;;;;2.80;1.50;;;;;;;;;;8211612;28;20026;-72
2023/05/07 12:47:33;;;;;;;2.25;1.42;;;;;;;;;;8235529;28;20057;-72
2023/05/07 12:51:34;;;;;;;1.42;1.33;;;;;;;;;;8250079;28;20084;-71
2023/05/07 12:55:42;;;;;;;1.48;1.38;;;;;;;;;;8247400;28;20097;-71
2023/05/07 12:59:42;;;;;;;1.63;1.40;;;;;;;;;;8246137;28;20022;-72
2023/05/07 13:03:47;;;;;;;2.60;1.50;;;;;;;;;;8245158;28;20137;-71
2023/05/07 13:07:55;;;;;;;1.50;1.40;;;;;;;;;;8245363;28;20908;-72
2023/05/07 13:11:55;;;;;;;2.28;1.60;;;;;;;;;;8247590;28;20390;-72
2023/05/07 13:15:55;;;;;;;1.70;1.30;;;;;;;;;;8248149;28;20030;-71
2023/05/07 13:19:55;;;;;;;1.85;1.38;;;;;;;;;;8249579;28;20125;-72
2023/05/07 13:23:56;;;;;;;1.40;1.30;;;;;;;;;;8250840;28;20028;-70
2023/05/07 13:27:59;;;;;;;2.30;1.40;;;;;;;;;;8251931;28;20483;-71
2023/05/07 13:31:59;;;;;;;1.52;1.40;;;;;;;;;;8251271;28;20277;-75
2023/05/07 13:36:00;;;;;;;1.42;1.30;;;;;;;;;;8261106;28;20033;-71
2023/05/07 13:40:00;;;;;;;3.25;1.40;;;;;;;;;;8247884;28;20092;-72
2023/05/07 13:44:00;;;;;;;1.73;1.20;;;;;;;;;;8255982;28;20482;-72
2023/05/07 13:48:01;;;;;;;1.50;1.40;;;;;;;;;;8247107;28;20050;-71
2023/05/07 13:52:01;;;;;;;2.03;1.20;;;;;;;;;;8249695;28;20029;-72
2023/05/07 13:56:04;;;;;;;1.50;1.20;;;;;;;;;;8256633;28;20561;-71
2023/05/07 14:00:05;;;;;;;1.45;1.35;;;;;;;;;;8250345;28;21054;-72
2023/05/07 14:04:05;;;;;;;2.78;1.40;;;;;;;;;;8245142;28;20478;-72
2023/05/07 14:08:05;;;;;;;1.40;1.30;;;;;;;;;;8247622;28;20124;-71
2023/05/07 14:12:05;;;;;;;2.93;1.20;;;;;;;;;;8249449;28;20203;-71
2023/05/07 14:16:06;;;;;;;1.30;1.20;;;;;;;;;;8248457;28;20717;-71
2023/05/07 14:20:06;;;;;;;1.25;1.20;;;;;;;;;;8253215;28;20516;-72
2023/05/07 14:24:08;;;;;;;5.38;2.00;;;;;;;;;;8253728;28;20038;-72
2023/05/07 14:28:08;;;;;;;1.80;1.30;;;;;;;;;;8248472;28;20048;-72
2023/05/07 14:32:08;;;;;;;1.35;1.20;;;;;;;;;;8246032;28;20092;-72
2023/05/07 14:36:08;;;;;;;12.85;7.68;;;;;;;;;;8246987;28;20040;-72
2023/05/07 14:40:09;;;;;;;16.88;10.50;;;;;;;;;;8249598;28;20032;-72
2023/05/07 14:44:09;;;;;;;5.22;3.63;;;;;;;;;;8246177;28;20068;-72
2023/05/07 14:48:14;;;;;;;2.88;1.90;;;;;;;;;;8245251;28;20033;-72
2023/05/07 14:52:15;;;;;;;1.52;1.38;;;;;;;;;;8238835;28;20125;-72
2023/05/07 14:56:15;;;;;;;4.18;1.60;;;;;;;;;;8248875;28;20491;-72
2023/05/07 15:00:15;;;;;;;2.88;1.65;;;;;;;;;;8247592;28;20033;-72
2023/05/07 15:04:16;;;;;;;2.15;1.83;;;;;;;;;;8223285;28;20126;-72
2023/05/07 15:08:16;;;;;;;2.20;1.75;;;;;;;;;;8256130;28;20041;-73
2023/05/07 15:12:16;;;;;;;1.43;1.33;;;;;;;;;;8246281;28;20828;-73
2023/05/07 15:16:17;;;;;;;2.47;1.47;;;;;;;;;;8243945;28;20156;-72
2023/05/07 15:20:17;;;;;;;4.70;1.65;;;;;;;;;;8245151;28;20030;-72
2023/05/07 15:24:17;;;;;;;1.70;1.60;;;;;;;;;;8246333;28;20482;-73
2023/05/07 15:28:18;;;;;;;2.33;1.50;;;;;;;;;;8243989;28;20054;-72
2023/05/07 15:32:19;;;;;;;2.95;1.80;;;;;;;;;;8251057;28;20034;-73
2023/05/07 15:36:20;;;;;;;5.18;1.80;;;;;;;;;;8267045;28;20037;-73
2023/05/07 15:40:20;;;;;;;3.15;1.77;;;;;;;;;;8261036;28;20025;-73
2023/05/07 15:44:21;;;;;;;6.18;1.80;;;;;;;;;;8304502;28;20049;-73
2023/05/07 15:48:28;;;;;;;6.93;2.47;;;;;;;;;;8305352;28;20060;-73
2023/05/07 15:52:28;;;;;;;2.90;2.08;;;;;;;;;;8293642;28;20770;-72
2023/05/07 15:56:32;;;;;;;5.67;2.10;;;;;;;;;;8275376;28;20461;-71
2023/05/07 16:00:35;;;;;;;4.45;2.17;;;;;;;;;;8262046;28;20112;-72
2023/05/07 16:04:35;;;;;;;3.73;2.20;;;;;;;;;;8266289;28;20037;-72
2023/05/07 16:08:35;;;;;;;5.32;2.70;;;;;;;;;;8262485;28;20010;-72
2023/05/07 16:12:36;;;;;;;9.02;3.40;;;;;;;;;;8256717;28;20020;-71
2023/05/07 16:16:38;;;;;;;5.63;3.60;;;;;;;;;;8264205;28;20374;-72
2023/05/07 16:20:38;;;;;;;3.47;3.10;;;;;;;;;;8259154;28;20351;-71
2023/05/07 16:24:38;;;;;;;5.40;3.85;;;;;;;;;;8253805;28;20026;-72
2023/05/07 16:28:39;;;;;;;7.05;4.70;;;;;;;;;;8247944;28;20021;-72
2023/05/07 16:32:39;;;;;;;3.55;2.10;;;;;;;;;;8243243;28;20485;-73
2023/05/07 16:36:40;;;;;;;5.63;2.10;;;;;;;;;;8246350;28;20746;-74
2023/05/07 16:40:40;;;;;;;3.20;2.22;;;;;;;;;;8238913;28;20022;-72
2023/05/07 16:44:40;;;;;;;2.78;2.30;;;;;;;;;;8246476;28;20112;-72
2023/05/07 16:48:41;;;;;;;5.68;2.20;;;;;;;;;;8246693;28;20038;-72
2023/05/07 16:52:41;;;;;;;2.75;2.22;;;;;;;;;;8254160;28;20018;-72
2023/05/07 16:56:42;;;;;;;2.20;2.10;;;;;;;;;;8254355;28;20037;-72
2023/05/07 17:00:43;;;;;;;4.57;2.05;;;;;;;;;;8248375;28;20770;-71
2023/05/07 17:04:43;;;;;;;2.40;2.10;;;;;;;;;;8251734;28;20766;-72
2023/05/07 17:08:43;;;;;;;3.30;2.70;;;;;;;;;;8249744;28;20363;-71
2023/05/07 17:12:43;;;;;;;2.53;2.33;;;;;;;;;;8250601;28;20033;-72
2023/05/07 17:16:43;;;;;;;2.33;2.13;;;;;;;;;;8250550;28;20111;-72
2023/05/07 17:20:44;;;;;;;4.05;3.10;;;;;;;;;;8253278;28;20911;-72
2023/05/07 17:24:44;;;;;;;7.13;4.00;;;;;;;;;;8256016;28;20021;-72
2023/05/07 17:28:44;;;;;;;3.13;2.50;;;;;;;;;;8249401;28;20026;-71
2023/05/07 17:32:45;;;;;;;1.50;1.40;;;;;;;;;;8251263;28;20312;-72
2023/05/07 17:36:45;;;;;;;1.50;1.40;;;;;;;;;;8250943;28;20084;-71
2023/05/07 17:40:45;;;;;;;2.45;1.50;;;;;;;;;;8250618;28;20281;-71
2023/05/07 17:44:45;;;;;;;1.67;1.40;;;;;;;;;;8254804;28;20030;-71
2023/05/07 17:48:45;;;;;;;3.10;1.10;;;;;;;;;;8254121;28;20038;-72
2023/05/07 17:52:45;;;;;;;1.30;1.20;;;;;;;;;;8251206;28;20033;-72
2023/05/07 17:56:46;;;;;;;2.17;1.70;;;;;;;;;;8250733;28;20025;-71
2023/05/07 18:00:46;;;;;;;1.98;1.88;;;;;;;;;;8249922;28;20042;-71
2023/05/07 18:04:46;;;;;;;2.55;1.48;;;;;;;;;;8258713;28;20099;-72
2023/05/07 18:08:46;;;;;;;1.10;1.10;;;;;;;;;;8253421;28;20018;-72
2023/05/07 18:12:47;;;;;;;1.30;1.10;;;;;;;;;;8248588;28;20029;-71
2023/05/07 18:16:47;;;;;;;1.07;1.07;;;;;;;;;;8256481;28;20146;-72
2023/05/07 18:20:48;;;;;;;1.10;1.05;;;;;;;;;;8252354;28;20195;-72
2023/05/07 18:24:48;;;;;;;1.00;1.00;;;;;;;;;;8250339;28;20792;-72
2023/05/07 18:28:48;;;;;;;2.33;1.00;;;;;;;;;;8258368;28;20177;-71
2023/05/07 18:32:50;;;;;;;2.08;1.00;;;;;;;;;;8250279;28;20859;-72
2023/05/07 18:36:50;;;;;;;2.25;1.00;;;;;;;;;;8252803;28;20038;-71
2023/05/07 18:40:50;;;;;;;0.90;0.90;;;;;;;;;;8250306;28;20025;-72
2023/05/07 18:44:50;;;;;;;1.17;1.08;;;;;;;;;;8251163;28;20096;-72
2023/05/07 18:48:51;;;;;;;1.10;1.00;;;;;;;;;;8247160;28;20038;-72
2023/05/07 18:52:51;;;;;;;0.95;0.93;;;;;;;;;;8252249;28;20029;-72
2023/05/07 18:56:52;;;;;;;1.75;1.10;;;;;;;;;;8251249;28;20155;-72
2023/05/07 19:00:52;;;;;;;0.90;0.90;;;;;;;;;;8254591;28;20042;-72
2023/05/07 19:04:52;;;;;;;2.10;1.00;;;;;;;;;;8247319;28;20026;-72
2023/05/07 19:08:52;;;;;;;1.75;0.90;;;;;;;;;;8251989;28;20030;-73
2023/05/07 19:12:54;;;;;;;1.85;1.10;;;;;;;;;;8245015;28;20104;-72
2023/05/07 19:16:55;;;;;;;1.88;1.10;;;;;;;;;;8243633;28;20033;-73
2023/05/07 19:20:55;;;;;;;1.20;1.20;;;;;;;;;;8245118;28;20037;-72
2023/05/07 19:24:55;;;;;;;1.40;1.02;;;;;;;;;;8251311;28;20030;-72
2023/05/07 19:28:55;;;;;;;1.35;1.25;;;;;;;;;;8244307;28;20155;-72
2023/05/07 19:32:57;;;;;;;1.20;1.10;;;;;;;;;;8245734;28;20030;-72
2023/05/07 19:36:58;;;;;;;1.10;1.00;;;;;;;;;;8242381;28;20037;-72
2023/05/07 19:40:59;;;;;;;1.15;1.08;;;;;;;;;;8245209;28;20717;-72
2023/05/07 19:44:59;;;;;;;1.00;0.90;;;;;;;;;;8249424;28;21031;-71
2023/05/07 19:49:00;;;;;;;0.90;0.90;;;;;;;;;;8245191;28;20120;-72
2023/05/07 19:53:00;;;;;;;1.00;0.98;;;;;;;;;;8241192;28;20036;-72
2023/05/07 19:57:00;;;;;;;0.93;0.93;;;;;;;;;;8245932;28;20030;-72
2023/05/07 20:01:01;;;;;;;1.20;1.10;;;;;;;;;;8238985;28;20124;-72
2023/05/07 20:05:01;;;;;;;2.20;1.37;;;;;;;;;;8245196;28;20296;-72
2023/05/07 20:09:01;;;;;;;1.37;1.27;;;;;;;;;;8247233;28;20296;-72
2023/05/07 20:13:02;;;;;;;1.90;1.20;;;;;;;;;;8245338;28;21011;-71
2023/05/07 20:17:02;;;;;;;1.33;0.90;;;;;;;;;;8248734;28;20990;-72
2023/05/07 20:21:03;;;;;;;1.90;1.40;;;;;;;;;;8243823;28;20722;-72
2023/05/07 20:25:05;;;;;;;1.38;1.27;;;;;;;;;;8248667;28;20706;-72
2023/05/07 20:29:05;;;;;;;1.70;1.55;;;;;;;;;;8247258;28;20021;-72
2023/05/07 20:33:06;;;;;;;1.70;1.60;;;;;;;;;;8248197;28;20048;-72
2023/05/07 20:37:10;;;;;;;3.70;2.13;;;;;;;;;;8245616;28;20029;-72
2023/05/07 20:41:13;;;;;;;3.25;1.80;;;;;;;;;;8252628;28;20737;-72
2023/05/07 20:45:13;;;;;;;2.17;1.98;;;;;;;;;;8245410;28;20495;-72
2023/05/07 20:49:13;;;;;;;2.27;2.07;;;;;;;;;;8246514;28;20745;-71
2023/05/07 20:53:14;;;;;;;3.67;2.40;;;;;;;;;;8248748;28;20650;-71
2023/05/07 20:57:14;;;;;;;3.47;2.90;;;;;;;;;;8246103;28;20040;-71
2023/05/07 21:01:14;;;;;;;4.57;2.75;;;;;;;;;;8245370;28;20411;-71
2023/05/07 21:05:15;;;;;;;3.30;3.00;;;;;;;;;;8246401;28;20783;-71
2023/05/07 21:09:15;;;;;;;2.70;2.50;;;;;;;;;;8242556;28;20034;-71
2023/05/07 21:13:15;;;;;;;6.07;2.50;;;;;;;;;;8245388;28;20100;-71
2023/05/07 21:17:16;;;;;;;3.35;2.35;;;;;;;;;;8245331;28;20471;-73
2023/05/07 21:21:16;;;;;;;2.38;2.17;;;;;;;;;;8245991;28;20113;-71
2023/05/07 21:25:16;;;;;;;2.97;2.00;;;;;;;;;;8243605;28;20022;-71
2023/05/07 21:29:16;;;;;;;5.35;2.33;;;;;;;;;;8243826;28;20050;-71
2023/05/07 21:33:17;;;;;;;3.58;2.42;;;;;;;;;;8246964;28;20064;-71
2023/05/07 21:37:18;;;;;;;3.00;2.80;;;;;;;;;;8269984;28;20033;-71
2023/05/07 21:41:19;;;;;;;2.72;2.42;;;;;;;;;;8247351;28;20585;-71
2023/05/07 21:45:19;;;;;;;3.20;2.90;;;;;;;;;;8248220;28;20030;-72
2023/05/07 21:49:19;;;;;;;4.07;3.20;;;;;;;;;;8252044;28;20792;-71
2023/05/07 21:53:20;;;;;;;3.25;2.65;;;;;;;;;;8247579;28;20045;-71
2023/05/07 21:57:20;;;;;;;3.50;3.20;;;;;;;;;;8259091;28;20080;-71
2023/05/07 22:01:20;;;;;;;3.25;2.72;;;;;;;;;;8247692;28;20068;-71
2023/05/07 22:05:20;;;;;;;3.95;3.00;;;;;;;;;;8248273;28;20017;-71
2023/05/07 22:09:21;;;;;;;3.63;2.90;;;;;;;;;;8245996;28;20029;-72
2023/05/07 22:13:21;;;;;;;3.10;2.83;;;;;;;;;;8248755;28;21183;-71
2023/05/07 22:17:23;;;;;;;3.30;3.00;;;;;;;;;;8253371;28;20083;-71
2023/05/07 22:21:23;;;;;;;5.65;3.58;;;;;;;;;;8261414;28;20021;-72
2023/05/07 22:25:23;;;;;;;4.73;3.73;;;;;;;;;;8248431;28;20140;-72
2023/05/07 22:29:24;;;;;;;4.60;3.97;;;;;;;;;;8252880;28;20289;-71
2023/05/07 22:33:24;;;;;;;4.10;3.77;;;;;;;;;;8253565;28;20030;-72
2023/05/07 22:37:24;;;;;;;5.90;4.63;;;;;;;;;;8251962;28;20038;-72
2023/05/07 22:41:24;;;;;;;5.72;4.50;;;;;;;;;;8250839;28;20093;-72
2023/05/07 22:45:24;;;;;;;7.43;5.88;;;;;;;;;;8248622;28;21186;-72
2023/05/07 22:49:25;;;;;;;7.43;6.73;;;;;;;;;;8251811;28;20072;-72
2023/05/07 22:53:25;;;;;;;11.70;7.70;;;;;;;;;;8250270;28;20034;-72
2023/05/07 22:57:25;;;;;;;7.82;7.00;;;;;;;;;;8259875;28;20158;-72
2023/05/07 23:01:25;;;;;;;14.38;8.18;;;;;;;;;;8254764;28;20579;-73
2023/05/07 23:05:25;;;;;;;6.85;6.20;;;;;;;;;;8257877;28;20037;-71
2023/05/07 23:09:26;;;;;;;24.30;7.55;;;;;;;;;;8248792;28;20042;-71
2023/05/07 23:13:26;;;;;;;26.33;7.50;;;;;;;;;;8249951;28;20026;-71
2023/05/07 23:17:26;;;;;;;160.43;11.38;;;;;;;;;;8250168;28;20683;-71
2023/05/07 23:21:26;;;;;;;62.47;8.83;;;;;;;;;;8251254;28;20022;-72
2023/05/07 23:25:28;;;;;;;10.95;6.70;;;;;;;;;;8261510;28;20148;-71
2023/05/07 23:29:28;;;;;;;7.53;6.82;;;;;;;;;;8248221;28;20024;-72
2023/05/07 23:33:28;;;;;;;6.70;6.10;;;;;;;;;;8250732;28;21059;-72
2023/05/07 23:37:29;;;;;;;5.97;5.38;;;;;;;;;;8250330;28;20034;-72
2023/05/07 23:41:29;;;;;;;8.93;6.13;;;;;;;;;;8250406;28;20045;-71
2023/05/07 23:45:29;;;;;;;6.18;5.57;;;;;;;;;;8249802;28;20045;-72
2023/05/07 23:49:29;;;;;;;7.57;5.78;;;;;;;;;;8248105;28;20022;-72
2023/05/07 23:53:30;;;;;;;5.47;4.78;;;;;;;;;;8246431;28;20057;-71
2023/05/07 23:57:30;;;;;;;5.05;4.55;;;;;;;;;;8249349;28;20030;-72
